Time;durP1;ratioP1;P1;durP2;ratioP2;P2;SDS_P1;SDS_P2;PMS_P1;PMS_P2;Temp;Humidity;BMP_temperature;BMP_pressure;BME280_temperature;BME280_humidity;BME280_pressure;Samples;Min_cycle;Max_cycle;Signal;HPM_P1;HPM_P2
2023/07/02 00:00:28;;;;;;;19.40;12.93;;;16.50;99.90;;;;;;5052425;28;20217;-74
2023/07/02 00:03:15;;;;;;;19.37;14.00;;;16.50;99.90;;;;;;5051755;28;20231;-74
2023/07/02 00:06:02;;;;;;;24.40;13.10;;;16.50;99.90;;;;;;5051798;28;20198;-74
2023/07/02 00:08:49;;;;;;;18.70;13.07;;;16.40;99.90;;;;;;5052586;28;20606;-74
2023/07/02 00:11:36;;;;;;;21.83;14.00;;;16.40;99.90;;;;;;5051867;28;20239;-74
2023/07/02 00:14:25;;;;;;;23.17;13.00;;;16.40;99.90;;;;;;5052282;28;20202;-74
2023/07/02 00:17:13;;;;;;;20.73;13.80;;;16.30;99.90;;;;;;5052212;28;20617;-74
2023/07/02 00:20:02;;;;;;;17.90;13.67;;;16.20;99.90;;;;;;5052200;28;20284;-74
2023/07/02 00:22:49;;;;;;;63.07;14.17;;;16.20;99.90;;;;;;5052194;28;20202;-73
2023/07/02 00:25:37;;;;;;;53.17;13.53;;;16.20;99.90;;;;;;5052219;28;20262;-74
2023/07/02 00:28:24;;;;;;;87.07;14.27;;;16.20;99.90;;;;;;5052158;28;20478;-74
2023/07/02 00:31:13;;;;;;;26.80;12.87;;;16.20;99.90;;;;;;5052346;28;20211;-73
2023/07/02 00:34:01;;;;;;;20.57;13.63;;;16.20;99.90;;;;;;5051547;28;20195;-74
2023/07/02 00:36:48;;;;;;;21.93;13.83;;;16.20;99.90;;;;;;5056095;28;20202;-73
2023/07/02 00:39:35;;;;;;;19.40;13.43;;;16.20;99.90;;;;;;5055972;28;20259;-74
2023/07/02 00:42:23;;;;;;;20.30;13.20;;;16.20;99.90;;;;;;5055290;28;20224;-73
2023/07/02 00:45:11;;;;;;;41.40;12.77;;;16.20;99.90;;;;;;5056131;28;20286;-74
2023/07/02 00:47:59;;;;;;;20.47;13.53;;;16.10;99.90;;;;;;5073869;28;20194;-73
2023/07/02 00:50:46;;;;;;;20.90;13.53;;;16.10;99.90;;;;;;5076152;28;20201;-74
2023/07/02 00:53:34;;;;;;;21.70;13.53;;;16.10;99.90;;;;;;5074034;28;20199;-74
2023/07/02 00:56:21;;;;;;;22.53;13.83;;;16.10;99.90;;;;;;5075739;28;20200;-74
2023/07/02 00:59:08;;;;;;;19.70;13.07;;;16.10;99.90;;;;;;5075850;28;20198;-74
2023/07/02 01:01:56;;;;;;;21.23;13.77;;;16.10;99.90;;;;;;5075679;28;20216;-74
2023/07/02 01:04:49;;;;;;;21.83;13.90;;;16.10;99.90;;;;;;5075579;28;20200;-74
2023/07/02 01:07:36;;;;;;;20.67;13.97;;;16.20;99.90;;;;;;5074016;28;20206;-74
2023/07/02 01:10:23;;;;;;;24.57;13.33;;;16.20;99.90;;;;;;5075457;28;20242;-74
2023/07/02 01:13:13;;;;;;;22.90;13.53;;;16.20;99.90;;;;;;5075570;28;20197;-74
2023/07/02 01:16:00;;;;;;;20.57;14.13;;;16.10;99.90;;;;;;5075705;28;20201;-73
2023/07/02 01:18:47;;;;;;;23.23;15.70;;;16.20;99.90;;;;;;5075310;28;20203;-74
2023/07/02 01:21:36;;;;;;;23.87;14.53;;;16.10;99.90;;;;;;5075195;28;20219;-74
2023/07/02 01:24:23;;;;;;;27.63;16.10;;;16.10;99.90;;;;;;5074119;28;20263;-74
2023/07/02 01:27:11;;;;;;;26.07;15.50;;;16.10;99.90;;;;;;5074696;28;20684;-74
2023/07/02 01:29:58;;;;;;;27.83;16.33;;;16.10;99.90;;;;;;5075497;28;20204;-74
2023/07/02 01:32:45;;;;;;;28.23;16.37;;;16.10;99.90;;;;;;5075114;28;20228;-74
2023/07/02 01:35:32;;;;;;;24.83;15.17;;;16.10;99.90;;;;;;5075310;28;20209;-74
2023/07/02 01:38:22;;;;;;;27.13;16.63;;;16.10;99.90;;;;;;5075215;28;20219;-74
2023/07/02 01:41:09;;;;;;;32.80;16.07;;;16.10;99.90;;;;;;5074770;28;20309;-74
2023/07/02 01:43:56;;;;;;;27.63;15.63;;;16.10;99.90;;;;;;5073452;28;20262;-74
2023/07/02 01:46:44;;;;;;;26.57;15.47;;;16.00;99.90;;;;;;5065935;28;20557;-74
2023/07/02 01:49:31;;;;;;;24.10;15.77;;;15.90;99.90;;;;;;5054091;28;20265;-74
2023/07/02 01:52:18;;;;;;;23.47;15.13;;;15.90;99.90;;;;;;5054850;28;20335;-74
2023/07/02 01:55:07;;;;;;;22.43;14.97;;;15.80;99.90;;;;;;5054625;28;20201;-74
2023/07/02 01:57:54;;;;;;;24.03;15.50;;;15.70;99.90;;;;;;5054640;28;20204;-74
2023/07/02 02:00:42;;;;;;;20.57;15.20;;;15.70;99.90;;;;;;5053883;28;20258;-74
2023/07/02 02:03:29;;;;;;;24.80;15.37;;;15.70;99.90;;;;;;5054526;28;20197;-74
2023/07/02 02:06:16;;;;;;;22.30;15.53;;;15.60;99.90;;;;;;5054447;28;20201;-74
2023/07/02 02:09:04;;;;;;;28.80;16.27;;;15.50;99.90;;;;;;5053837;28;20227;-74
2023/07/02 02:11:53;;;;;;;25.20;15.63;;;15.50;99.90;;;;;;5054060;28;20191;-74
2023/07/02 02:14:40;;;;;;;22.10;14.77;;;15.50;99.90;;;;;;5053710;28;20736;-74
2023/07/02 02:17:27;;;;;;;24.13;15.77;;;15.50;99.90;;;;;;5053867;28;20199;-74
2023/07/02 02:20:14;;;;;;;22.73;15.47;;;15.40;99.90;;;;;;5053869;28;20621;-74
2023/07/02 02:23:02;;;;;;;27.77;15.30;;;15.40;99.90;;;;;;5053746;28;20204;-74
2023/07/02 02:25:49;;;;;;;24.73;17.00;;;15.30;99.90;;;;;;5053542;28;20195;-74
2023/07/02 02:28:37;;;;;;;24.83;16.40;;;15.30;99.90;;;;;;5054316;28;20246;-74
2023/07/02 02:31:25;;;;;;;22.93;15.50;;;15.20;99.90;;;;;;5053809;28;20191;-74
2023/07/02 02:34:12;;;;;;;26.83;16.63;;;15.10;99.90;;;;;;5053194;28;20200;-74
2023/07/02 02:36:59;;;;;;;142.90;16.60;;;15.10;99.90;;;;;;5054178;28;20203;-74
2023/07/02 02:39:46;;;;;;;24.43;15.13;;;15.00;99.90;;;;;;5054239;28;20308;-74
2023/07/02 02:42:33;;;;;;;21.63;15.13;;;14.90;99.90;;;;;;5053366;28;20258;-74
2023/07/02 02:45:22;;;;;;;23.23;16.70;;;14.80;99.90;;;;;;5053026;28;20270;-74
2023/07/02 02:48:09;;;;;;;31.67;16.23;;;14.80;99.90;;;;;;5033493;28;20676;-74
2023/07/02 02:50:56;;;;;;;29.67;16.07;;;14.80;99.90;;;;;;5033926;28;20664;-74
2023/07/02 02:53:43;;;;;;;26.87;15.80;;;14.80;99.90;;;;;;5032885;28;20204;-74
2023/07/02 02:56:31;;;;;;;24.30;15.83;;;14.70;99.90;;;;;;5033668;28;20293;-74
2023/07/02 02:59:18;;;;;;;30.93;15.20;;;14.70;99.90;;;;;;5033134;28;20202;-74
2023/07/02 03:02:06;;;;;;;23.17;16.37;;;14.70;99.90;;;;;;5032309;28;20306;-74
2023/07/02 03:04:53;;;;;;;27.73;16.43;;;14.60;99.90;;;;;;5032737;28;20201;-74
2023/07/02 03:07:41;;;;;;;26.03;16.73;;;14.60;99.90;;;;;;5033359;28;20201;-74
2023/07/02 03:10:28;;;;;;;27.40;17.03;;;14.60;99.90;;;;;;5033324;28;20572;-74
2023/07/02 03:13:15;;;;;;;26.30;16.60;;;14.60;99.90;;;;;;5033138;28;20198;-75
2023/07/02 03:16:02;;;;;;;23.27;16.30;;;14.60;99.90;;;;;;5033284;28;20209;-74
2023/07/02 03:18:51;;;;;;;26.77;15.97;;;14.70;99.90;;;;;;5033450;28;20194;-74
2023/07/02 03:21:38;;;;;;;29.57;15.47;;;14.70;99.90;;;;;;5033331;28;20604;-74
2023/07/02 03:24:25;;;;;;;25.73;15.33;;;14.70;99.90;;;;;;5031997;28;20234;-74
2023/07/02 03:27:12;;;;;;;24.10;16.83;;;14.70;99.90;;;;;;5033282;28;20225;-74
2023/07/02 03:30:00;;;;;;;25.07;16.53;;;14.70;99.90;;;;;;5033023;28;20198;-74
2023/07/02 03:32:47;;;;;;;28.53;16.37;;;14.70;99.90;;;;;;5033172;28;20608;-74
2023/07/02 03:35:35;;;;;;;25.87;16.73;;;14.80;99.90;;;;;;5033005;28;20210;-74
2023/07/02 03:38:22;;;;;;;29.87;16.80;;;14.80;99.90;;;;;;5033094;28;20719;-74
2023/07/02 03:41:10;;;;;;;24.80;15.53;;;14.80;99.90;;;;;;5031557;28;20275;-73
2023/07/02 03:43:57;;;;;;;23.60;15.87;;;14.90;99.90;;;;;;5032823;28;20198;-75
2023/07/02 03:46:44;;;;;;;25.13;15.90;;;14.90;99.90;;;;;;5039397;28;20197;-74
2023/07/02 03:49:31;;;;;;;26.50;17.30;;;15.00;99.90;;;;;;5052560;28;20231;-74
2023/07/02 03:52:20;;;;;;;24.97;16.27;;;15.00;99.90;;;;;;5052318;28;20631;-74
2023/07/02 03:55:08;;;;;;;22.77;15.77;;;15.10;99.90;;;;;;5052615;28;20208;-73
2023/07/02 03:57:55;;;;;;;31.37;15.73;;;15.20;99.90;;;;;;5052473;28;20197;-74
2023/07/02 04:00:44;;;;;;;27.13;16.13;;;15.20;99.90;;;;;;5052508;28;20555;-74
2023/07/02 04:03:31;;;;;;;27.53;15.83;;;15.30;99.90;;;;;;5052442;28;20556;-75
2023/07/02 04:06:18;;;;;;;26.53;17.37;;;15.30;99.90;;;;;;5051823;28;20682;-74
2023/07/02 04:09:07;;;;;;;29.00;18.03;;;15.40;99.90;;;;;;5051277;28;20271;-74
2023/07/02 04:11:54;;;;;;;27.07;16.50;;;15.60;99.90;;;;;;5052351;28;20198;-74
2023/07/02 04:14:42;;;;;;;22.67;16.43;;;15.60;99.90;;;;;;5052319;28;20662;-74
2023/07/02 04:17:29;;;;;;;30.20;17.73;;;15.70;99.90;;;;;;5052405;28;20197;-74
2023/07/02 04:20:18;;;;;;;25.57;18.63;;;15.80;99.90;;;;;;5052218;28;20680;-75
2023/07/02 04:23:05;;;;;;;30.97;19.73;;;15.90;99.90;;;;;;5052046;28;20223;-74
2023/07/02 04:25:54;;;;;;;27.47;18.87;;;16.10;99.90;;;;;;5051862;28;20197;-74
2023/07/02 04:28:41;;;;;;;32.20;19.50;;;16.30;99.90;;;;;;5052178;28;20255;-74
2023/07/02 04:31:28;;;;;;;27.83;19.10;;;16.40;99.90;;;;;;5051625;28;20201;-74
2023/07/02 04:34:15;;;;;;;29.13;17.97;;;16.60;99.90;;;;;;5052380;28;20247;-74
2023/07/02 04:37:03;;;;;;;31.77;18.90;;;16.80;99.90;;;;;;5052055;28;20205;-74
2023/07/02 04:39:50;;;;;;;30.07;18.90;;;16.90;99.90;;;;;;5052094;28;20220;-74
2023/07/02 04:42:39;;;;;;;30.70;17.20;;;17.00;99.90;;;;;;5051748;28;20219;-74
2023/07/02 04:45:26;;;;;;;26.47;17.37;;;17.20;99.90;;;;;;5051490;28;20198;-74
2023/07/02 04:48:13;;;;;;;23.13;16.23;;;17.40;99.90;;;;;;5032964;28;20263;-75
2023/07/02 04:51:00;;;;;;;24.10;15.87;;;17.50;99.90;;;;;;5032162;28;20581;-75
2023/07/02 04:53:47;;;;;;;22.20;14.80;;;17.50;99.90;;;;;;5032091;28;20212;-74
2023/07/02 04:56:35;;;;;;;21.80;14.80;;;17.60;99.90;;;;;;5031977;28;20206;-74
2023/07/02 04:59:23;;;;;;;21.33;13.87;;;17.80;99.90;;;;;;5032022;28;20212;-74
2023/07/02 05:02:10;;;;;;;19.80;13.73;;;17.90;99.90;;;;;;5031929;28;20225;-74
2023/07/02 05:04:58;;;;;;;22.00;13.97;;;18.10;99.90;;;;;;5031940;28;20207;-74
2023/07/02 05:07:45;;;;;;;22.97;13.30;;;18.30;99.90;;;;;;5031927;28;20204;-74
2023/07/02 05:10:32;;;;;;;18.73;13.93;;;18.50;99.90;;;;;;5031968;28;20251;-74
2023/07/02 05:13:19;;;;;;;21.60;13.60;;;18.60;99.90;;;;;;5031821;28;20197;-74
2023/07/02 05:16:08;;;;;;;25.63;13.47;;;18.70;99.90;;;;;;5031862;28;20570;-75
2023/07/02 05:18:55;;;;;;;19.77;13.23;;;18.80;99.90;;;;;;5031809;28;20287;-74
2023/07/02 05:21:42;;;;;;;18.27;11.87;;;19.00;99.90;;;;;;5033710;28;20204;-74
2023/07/02 05:24:29;;;;;;;19.10;11.63;;;18.80;99.90;;;;;;5035641;28;20259;-74
2023/07/02 05:27:16;;;;;;;18.33;10.77;;;18.80;99.90;;;;;;5035227;28;20205;-74
2023/07/02 05:30:04;;;;;;;18.00;10.50;;;18.70;99.90;;;;;;5035271;28;20668;-74
2023/07/02 05:32:52;;;;;;;18.27;10.90;;;18.70;99.90;;;;;;5035203;28;20201;-73
2023/07/02 05:35:40;;;;;;;17.17;10.00;;;18.50;99.90;;;;;;5035146;28;20236;-74
2023/07/02 05:38:27;;;;;;;18.07;10.33;;;18.50;99.90;;;;;;5035013;28;20225;-74
2023/07/02 05:41:19;;;;;;;18.03;10.67;;;18.50;99.90;;;;;;5034987;28;20207;-74
2023/07/02 05:44:06;;;;;;;15.20;9.90;;;18.60;99.90;;;;;;5035000;28;20221;-74
2023/07/02 05:46:53;;;;;;;19.33;10.00;;;18.70;99.90;;;;;;5053228;28;20205;-73
2023/07/02 05:49:43;;;;;;;16.50;10.23;;;18.90;99.90;;;;;;5074712;28;20603;-74
2023/07/02 05:52:31;;;;;;;18.40;10.57;;;18.90;99.90;;;;;;5074472;28;20199;-73
2023/07/02 05:55:18;;;;;;;16.93;10.70;;;18.90;99.90;;;;;;5074595;28;20207;-74
2023/07/02 05:58:06;;;;;;;16.40;10.00;;;18.80;99.90;;;;;;5074669;28;20576;-74
2023/07/02 06:00:53;;;;;;;17.23;10.23;;;19.00;99.90;;;;;;5074568;28;20211;-73
2023/07/02 06:03:40;;;;;;;19.43;10.30;;;18.90;99.90;;;;;;5074542;28;20593;-73
2023/07/02 06:06:28;;;;;;;14.13;9.37;;;19.00;99.90;;;;;;5072811;28;20250;-73
2023/07/02 06:09:16;;;;;;;15.43;9.53;;;18.90;99.90;;;;;;5073713;28;20204;-73
2023/07/02 06:12:03;;;;;;;17.80;9.83;;;18.90;99.90;;;;;;5074374;28;20200;-73
2023/07/02 06:14:50;;;;;;;16.70;9.60;;;19.00;99.90;;;;;;5074357;28;20205;-74
2023/07/02 06:17:38;;;;;;;15.67;9.13;;;19.00;99.90;;;;;;5074261;28;20231;-74
2023/07/02 06:20:25;;;;;;;14.00;9.20;;;19.20;99.90;;;;;;5073594;28;20235;-74
2023/07/02 06:23:13;;;;;;;15.37;8.87;;;19.40;99.90;;;;;;5073390;28;20709;-73
2023/07/02 06:26:02;;;;;;;15.10;8.73;;;19.20;99.90;;;;;;5074173;28;20218;-74
2023/07/02 06:28:50;;;;;;;13.53;8.37;;;18.90;99.90;;;;;;5074053;28;20203;-74
2023/07/02 06:31:37;;;;;;;11.00;7.90;;;19.00;99.90;;;;;;5073452;28;20662;-74
2023/07/02 06:34:24;;;;;;;14.80;8.90;;;19.20;99.90;;;;;;5072989;28;20192;-73
2023/07/02 06:37:11;;;;;;;12.70;8.47;;;19.20;99.90;;;;;;5073205;28;20204;-73
2023/07/02 06:40:00;;;;;;;17.03;8.40;;;19.10;99.90;;;;;;5073197;28;20243;-73
2023/07/02 06:42:47;;;;;;;19.30;7.77;;;19.20;99.90;;;;;;5073678;28;20223;-74
2023/07/02 06:45:34;;;;;;;13.13;7.57;;;19.30;99.90;;;;;;5073178;28;20198;-74
2023/07/02 06:48:21;;;;;;;16.70;8.60;;;19.40;99.90;;;;;;5034182;28;20272;-74
2023/07/02 06:51:09;;;;;;;13.00;8.33;;;19.40;99.90;;;;;;5033703;28;20280;-74
2023/07/02 06:53:56;;;;;;;13.20;8.23;;;19.60;99.90;;;;;;5033651;28;20202;-73
2023/07/02 06:56:44;;;;;;;17.43;9.03;;;19.60;99.90;;;;;;5033622;28;20683;-73
2023/07/02 06:59:31;;;;;;;13.83;7.80;;;19.60;99.90;;;;;;5033576;28;20202;-73
2023/07/02 07:02:20;;;;;;;16.23;9.30;;;19.70;99.90;;;;;;5033704;28;20276;-73
2023/07/02 07:05:08;;;;;;;13.43;8.43;;;19.60;99.90;;;;;;5033327;28;20352;-74
2023/07/02 07:07:55;;;;;;;15.50;8.77;;;19.80;99.90;;;;;;5033461;28;20199;-73
2023/07/02 07:10:45;;;;;;;12.73;8.47;;;19.70;99.90;;;;;;5033402;28;20201;-73
2023/07/02 07:13:33;;;;;;;15.03;9.03;;;19.90;99.90;;;;;;5033257;28;20276;-73
2023/07/02 07:16:20;;;;;;;18.63;8.40;;;19.70;99.90;;;;;;5033269;28;20233;-73
2023/07/02 07:19:08;;;;;;;20.07;8.50;;;19.70;99.90;;;;;;5033160;28;20283;-73
2023/07/02 07:21:55;;;;;;;13.73;8.60;;;20.00;99.90;;;;;;5033094;28;20592;-73
2023/07/02 07:24:42;;;;;;;17.43;8.60;;;20.00;99.90;;;;;;5033104;28;20208;-74
2023/07/02 07:27:29;;;;;;;14.70;7.30;;;20.10;99.90;;;;;;5033011;28;20691;-73
2023/07/02 07:30:22;;;;;;;13.50;7.67;;;19.90;99.90;;;;;;5033015;28;20211;-73
2023/07/02 07:33:09;;;;;;;15.07;8.20;;;19.70;99.90;;;;;;5032881;28;20205;-74
2023/07/02 07:35:56;;;;;;;17.57;8.73;;;19.50;99.90;;;;;;5033166;28;20241;-74
2023/07/02 07:38:44;;;;;;;18.27;8.00;;;19.40;99.90;;;;;;5032823;28;20706;-73
2023/07/02 07:41:32;;;;;;;14.40;8.03;;;19.60;99.90;;;;;;5032859;28;20244;-74
2023/07/02 07:44:19;;;;;;;18.03;7.60;;;20.20;99.90;;;;;;5031841;28;20689;-76
2023/07/02 07:47:08;;;;;;;13.10;7.90;;;20.60;99.90;;;;;;5054621;28;20211;-73
2023/07/02 07:49:55;;;;;;;15.03;7.60;;;20.90;99.90;;;;;;5072457;28;20312;-74
2023/07/02 07:52:43;;;;;;;11.83;7.03;;;21.20;99.90;;;;;;5072004;28;20200;-74
2023/07/02 07:55:30;;;;;;;11.90;5.93;;;21.50;99.90;;;;;;5071919;28;20200;-73
2023/07/02 07:58:17;;;;;;;13.03;6.73;;;21.30;99.90;;;;;;5072218;28;20293;-74
2023/07/02 08:01:05;;;;;;;12.87;6.27;;;21.70;99.90;;;;;;5071930;28;20207;-72
2023/07/02 08:03:53;;;;;;;19.37;6.60;;;21.80;99.90;;;;;;5071798;28;20216;-73
2023/07/02 08:06:40;;;;;;;10.70;6.17;;;21.60;99.90;;;;;;5071928;28;20200;-77
2023/07/02 08:09:27;;;;;;;13.10;6.33;;;22.10;99.90;;;;;;5071815;28;20258;-74
2023/07/02 08:12:15;;;;;;;10.10;6.50;;;21.80;99.90;;;;;;5071735;28;20287;-73
2023/07/02 08:15:02;;;;;;;11.43;6.67;;;21.60;99.90;;;;;;5071744;28;20200;-73
2023/07/02 08:17:49;;;;;;;8.80;6.03;;;21.10;99.90;;;;;;5071851;28;20207;-74
2023/07/02 08:20:38;;;;;;;9.73;6.03;;;21.30;99.90;;;;;;5071734;28;20200;-76
2023/07/02 08:23:25;;;;;;;9.27;6.50;;;21.20;99.90;;;;;;5072111;28;20297;-74
2023/07/02 08:26:13;;;;;;;12.33;6.50;;;21.10;99.90;;;;;;5071736;28;20219;-73
2023/07/02 08:29:01;;;;;;;9.13;6.13;;;20.50;99.90;;;;;;5071548;28;20329;-73
2023/07/02 08:31:48;;;;;;;15.13;6.77;;;20.40;99.90;;;;;;5071521;28;20201;-73
2023/07/02 08:34:35;;;;;;;12.00;6.53;;;20.10;99.90;;;;;;5072234;28;20275;-73
2023/07/02 08:37:24;;;;;;;8.93;5.47;;;20.30;99.90;;;;;;5071493;28;20200;-73
2023/07/02 08:40:17;;;;;;;7.00;4.83;;;20.30;99.90;;;;;;5071523;28;20212;-74
2023/07/02 08:43:04;;;;;;;8.47;4.23;;;20.50;99.90;;;;;;5072019;28;20223;-75
2023/07/02 08:45:52;;;;;;;10.23;4.30;;;20.60;99.90;;;;;;5070609;28;20571;-73
2023/07/02 08:48:39;;;;;;;7.80;4.77;;;20.60;99.90;;;;;;5051906;28;20229;-73
2023/07/02 08:51:26;;;;;;;8.33;4.33;;;20.70;99.90;;;;;;5051955;28;20208;-73
2023/07/02 08:54:15;;;;;;;9.03;4.50;;;20.90;99.90;;;;;;5051690;28;20672;-73
2023/07/02 08:57:05;;;;;;;6.90;3.97;;;21.20;99.90;;;;;;5054660;28;20201;-76
2023/07/02 08:59:52;;;;;;;7.87;3.57;;;21.60;99.90;;;;;;5055807;28;20220;-73
2023/07/02 09:02:39;;;;;;;6.80;3.77;;;21.50;99.90;;;;;;5055919;28;20545;-74
2023/07/02 09:05:26;;;;;;;6.00;3.70;;;21.00;99.90;;;;;;5055556;28;20390;-74
2023/07/02 09:08:14;;;;;;;5.83;4.13;;;20.70;99.90;;;;;;5055652;28;20197;-73
2023/07/02 09:11:09;;;;;;;3.93;3.10;;;20.50;99.90;;;;;;5056164;28;20193;-75
2023/07/02 09:14:00;;;;;;;6.23;3.63;;;20.60;99.90;;;;;;5055706;28;20201;-74
2023/07/02 09:16:47;;;;;;;5.40;3.83;;;20.50;99.90;;;;;;5055376;28;20251;-73
2023/07/02 09:19:34;;;;;;;7.07;3.90;;;20.40;99.90;;;;;;5055346;28;20193;-74
2023/07/02 09:22:22;;;;;;;4.63;3.80;;;20.40;99.90;;;;;;5055323;28;20220;-72
2023/07/02 09:25:11;;;;;;;8.83;3.40;;;20.30;99.90;;;;;;5055171;28;20193;-73
2023/07/02 09:28:00;;;;;;;6.33;4.40;;;19.70;99.90;;;;;;5055223;28;20198;-74
2023/07/02 09:30:51;;;;;;;11.43;3.90;;;19.70;99.90;;;;;;5055137;28;20672;-74
2023/07/02 09:33:38;;;;;;;10.47;5.17;;;19.70;99.90;;;;;;5055137;28;20196;-73
2023/07/02 09:36:25;;;;;;;8.50;4.83;;;19.50;99.90;;;;;;5055122;28;20281;-73
2023/07/02 09:39:13;;;;;;;6.73;4.90;;;19.20;99.90;;;;;;5054865;28;20220;-73
2023/07/02 09:42:01;;;;;;;8.80;4.77;;;19.60;99.90;;;;;;5054976;28;20200;-73
2023/07/02 09:44:52;;;;;;;8.87;5.73;;;20.10;99.90;;;;;;5054851;28;20221;-73
2023/07/02 09:47:42;;;;;;;10.30;5.73;;;19.90;99.90;;;;;;5070381;28;20674;-74
2023/07/02 09:50:30;;;;;;;8.07;5.20;;;20.40;99.90;;;;;;5074373;28;20728;-72
2023/07/02 09:53:17;;;;;;;11.40;5.90;;;20.20;99.90;;;;;;5074654;28;20261;-74
2023/07/02 09:56:04;;;;;;;7.60;5.77;;;20.10;99.90;;;;;;5074099;28;20204;-73
2023/07/02 09:58:51;;;;;;;8.00;6.03;;;20.50;99.90;;;;;;5074062;28;20280;-73
2023/07/02 10:01:40;;;;;;;12.07;6.30;;;20.90;99.90;;;;;;5073972;28;20659;-74
2023/07/02 10:04:27;;;;;;;8.47;5.80;;;20.60;99.90;;;;;;5073926;28;20242;-73
2023/07/02 10:07:27;;;;;;;7.27;4.70;;;20.30;99.90;;;;;;5073022;28;20209;-73
2023/07/02 10:10:14;;;;;;;7.93;5.37;;;20.40;99.90;;;;;;5072734;28;20292;-74
2023/07/02 10:13:01;;;;;;;8.93;5.23;;;21.10;99.90;;;;;;5073013;28;20246;-73
2023/07/02 10:15:48;;;;;;;7.80;4.73;;;20.70;99.90;;;;;;5073796;28;20207;-74
2023/07/02 10:18:37;;;;;;;7.37;4.67;;;20.60;99.90;;;;;;5073683;28;20197;-73
2023/07/02 10:21:24;;;;;;;8.30;4.50;;;21.10;99.90;;;;;;5073537;28;20199;-74
2023/07/02 10:24:13;;;;;;;8.00;5.67;;;21.80;99.90;;;;;;5073594;28;20224;-73
2023/07/02 10:27:00;;;;;;;6.50;5.20;;;21.60;99.90;;;;;;5074128;28;20270;-73
2023/07/02 10:29:50;;;;;;;9.00;4.77;;;21.70;99.90;;;;;;5073425;28;20205;-73
2023/07/02 10:32:38;;;;;;;7.53;4.53;;;21.80;99.90;;;;;;5073758;28;20593;-73
2023/07/02 10:35:26;;;;;;;7.73;5.20;;;22.30;99.90;;;;;;5073921;28;20192;-73
2023/07/02 10:38:19;;;;;;;6.80;5.10;;;22.60;99.90;;;;;;5073289;28;20699;-73
2023/07/02 10:41:06;;;;;;;7.07;4.77;;;23.10;99.90;;;;;;5073167;28;20250;-73
2023/07/02 10:43:53;;;;;;;7.57;5.27;;;22.40;99.90;;;;;;5073183;28;20225;-74
2023/07/02 10:46:46;;;;;;;9.87;5.70;;;22.90;99.90;;;;;;5066557;28;20193;-73
2023/07/02 10:49:34;;;;;;;9.07;5.80;;;22.00;99.90;;;;;;5053534;28;20221;-73
2023/07/02 10:52:22;;;;;;;8.47;5.70;;;22.40;99.90;;;;;;5053691;28;20201;-73
2023/07/02 10:55:10;;;;;;;14.60;5.73;;;22.00;99.90;;;;;;5053460;28;20201;-73
2023/07/02 10:58:04;;;;;;;8.50;5.40;;;21.90;99.90;;;;;;5052465;28;20205;-73
2023/07/02 11:00:52;;;;;;;8.43;5.50;;;21.90;99.90;;;;;;5053514;28;20691;-73
2023/07/02 11:03:39;;;;;;;9.67;5.63;;;21.90;99.90;;;;;;5053322;28;20294;-74
2023/07/02 11:06:26;;;;;;;9.60;6.50;;;21.90;99.90;;;;;;5053392;28;20278;-75
2023/07/02 11:09:20;;;;;;;11.03;6.27;;;22.00;99.90;;;;;;5053200;28;20211;-73
2023/07/02 11:12:08;;;;;;;9.93;5.60;;;21.60;99.90;;;;;;5053231;28;20208;-73
2023/07/02 11:14:55;;;;;;;9.10;5.10;;;21.80;99.90;;;;;;5053274;28;20247;-73
2023/07/02 11:17:42;;;;;;;7.47;4.97;;;22.30;99.90;;;;;;5053211;28;20690;-70
2023/07/02 11:20:34;;;;;;;12.30;5.30;;;21.50;99.90;;;;;;5053317;28;20208;-73
2023/07/02 11:23:22;;;;;;;7.17;5.20;;;22.00;99.90;;;;;;5052342;28;20205;-74
2023/07/02 11:26:10;;;;;;;10.73;5.40;;;22.10;99.90;;;;;;5053053;28;20224;-72
2023/07/02 11:28:58;;;;;;;10.50;5.60;;;21.80;99.90;;;;;;5052960;28;20204;-73
2023/07/02 11:31:45;;;;;;;8.00;4.50;;;21.80;99.90;;;;;;5052911;28;20255;-73
2023/07/02 11:34:32;;;;;;;13.57;5.20;;;22.30;99.90;;;;;;5052892;28;20200;-73
2023/07/02 11:37:19;;;;;;;6.90;4.70;;;22.60;99.90;;;;;;5052749;28;20204;-73
2023/07/02 11:40:08;;;;;;;6.60;4.13;;;22.60;99.90;;;;;;5052777;28;20212;-73
2023/07/02 11:42:56;;;;;;;5.60;3.60;;;21.90;99.90;;;;;;5052718;28;20194;-73
2023/07/02 11:45:44;;;;;;;5.10;3.87;;;22.50;99.90;;;;;;5052689;28;20252;-73
2023/07/02 11:48:31;;;;;;;7.70;3.83;;;22.50;99.90;;;;;;5033117;28;20229;-73
2023/07/02 11:51:18;;;;;;;6.03;3.20;;;22.80;99.90;;;;;;5033163;28;20292;-72
2023/07/02 11:54:06;;;;;;;4.30;3.30;;;22.70;99.90;;;;;;5033209;28;20205;-73
2023/07/02 11:56:53;;;;;;;6.50;3.60;;;23.20;99.90;;;;;;5033289;28;20280;-72
2023/07/02 11:59:42;;;;;;;5.73;3.40;;;23.00;99.90;;;;;;5033147;28;20205;-73
2023/07/02 12:02:29;;;;;;;8.70;3.30;;;22.90;99.90;;;;;;5033156;28;20206;-73
2023/07/02 12:05:16;;;;;;;6.43;2.97;;;22.70;99.90;;;;;;5032956;28;20210;-74
2023/07/02 12:08:04;;;;;;;7.83;3.37;;;22.80;99.90;;;;;;5033294;28;20197;-73
2023/07/02 12:10:51;;;;;;;4.53;2.70;;;22.70;99.90;;;;;;5033108;28;20224;-75
2023/07/02 12:13:38;;;;;;;3.33;2.50;;;22.90;99.90;;;;;;5033127;28;20197;-73
2023/07/02 12:16:26;;;;;;;5.03;2.60;;;22.80;99.90;;;;;;5032987;28;20613;-73
2023/07/02 12:19:14;;;;;;;3.37;2.47;;;22.90;99.90;;;;;;5032829;28;20264;-74
2023/07/02 12:22:01;;;;;;;4.03;2.90;;;22.90;99.90;;;;;;5033048;28;20209;-74
2023/07/02 12:24:49;;;;;;;6.60;3.00;;;23.00;99.90;;;;;;5032885;28;20217;-73
2023/07/02 12:27:37;;;;;;;6.17;2.60;;;23.20;99.90;;;;;;5032919;28;20202;-74
2023/07/02 12:30:24;;;;;;;3.72;2.40;;;23.60;99.90;;;;;;5033077;28;20193;-74
2023/07/02 12:33:12;;;;;;;3.35;2.53;;;24.50;99.90;;;;;;5036847;28;20244;-74
2023/07/02 12:36:00;;;;;;;2.40;1.77;;;25.10;99.90;;;;;;5036923;28;20574;-75
2023/07/02 12:38:47;;;;;;;3.17;2.28;;;24.60;99.90;;;;;;5036747;28;20759;-75
2023/07/02 12:41:34;;;;;;;3.13;2.22;;;24.90;99.90;;;;;;5036795;28;20198;-75
2023/07/02 12:44:21;;;;;;;4.03;2.60;;;25.10;99.90;;;;;;5036592;28;20692;-72
2023/07/02 12:47:09;;;;;;;5.40;2.75;;;23.90;99.90;;;;;;5059128;28;20243;-74
2023/07/02 12:49:58;;;;;;;3.15;2.70;;;24.00;99.90;;;;;;5075281;28;20224;-74
2023/07/02 12:52:45;;;;;;;3.78;2.38;;;24.10;99.90;;;;;;5075243;28;20220;-74
2023/07/02 12:55:32;;;;;;;2.90;2.58;;;24.10;99.90;;;;;;5075219;28;20276;-73
2023/07/02 12:58:19;;;;;;;3.97;2.83;;;23.80;99.90;;;;;;5075829;28;20204;-73
2023/07/02 13:01:06;;;;;;;4.07;2.88;;;23.30;99.90;;;;;;5075165;28;20208;-72
2023/07/02 13:03:54;;;;;;;6.15;2.80;;;23.20;99.90;;;;;;5075124;28;20208;-72
2023/07/02 13:06:44;;;;;;;11.37;2.30;;;22.90;99.90;;;;;;5075054;28;20603;-75
2023/07/02 13:09:31;;;;;;;5.10;1.10;;;22.70;99.90;;;;;;5075037;28;20310;-72
2023/07/02 13:12:19;;;;;;;2.67;0.97;;;21.60;99.90;;;;;;5075546;28;20223;-73
2023/07/02 13:15:08;;;;;;;2.67;1.20;;;20.70;99.90;;;;;;5074891;28;20204;-73
2023/07/02 13:17:55;;;;;;;3.03;0.70;;;20.40;99.90;;;;;;5075472;28;20208;-74
2023/07/02 13:20:42;;;;;;;1.40;0.90;;;20.30;99.90;;;;;;5074770;28;20196;-75
2023/07/02 13:23:31;;;;;;;4.83;0.90;;;19.70;99.90;;;;;;5075525;28;20293;-74
2023/07/02 13:26:18;;;;;;;0.83;0.80;;;19.70;99.90;;;;;;5074657;28;20189;-73
2023/07/02 13:29:05;;;;;;;0.97;0.87;;;19.50;99.90;;;;;;5075190;28;20207;-77
2023/07/02 13:31:52;;;;;;;1.00;0.80;;;19.30;99.90;;;;;;5074618;28;20228;-75
2023/07/02 13:34:39;;;;;;;1.00;0.77;;;19.00;99.90;;;;;;5074674;28;20204;-73
2023/07/02 13:37:27;;;;;;;1.43;1.03;;;18.80;99.90;;;;;;5075033;28;20207;-74
2023/07/02 13:40:15;;;;;;;2.93;1.13;;;18.80;99.90;;;;;;5074995;28;20234;-74
2023/07/02 13:43:03;;;;;;;2.77;1.40;;;18.80;99.90;;;;;;5074464;28;20211;-74
2023/07/02 13:45:50;;;;;;;4.53;1.60;;;18.60;99.90;;;;;;5074271;28;20213;-74
2023/07/02 13:48:37;;;;;;;5.47;2.10;;;18.70;99.90;;;;;;5054690;28;20311;-74
2023/07/02 13:51:25;;;;;;;2.67;1.90;;;19.20;99.90;;;;;;5054764;28;20212;-74
2023/07/02 13:54:14;;;;;;;3.77;1.80;;;19.60;99.90;;;;;;5054812;28;20285;-73
2023/07/02 13:57:03;;;;;;;2.20;1.57;;;19.30;99.90;;;;;;5054713;28;20199;-73
2023/07/02 13:59:52;;;;;;;3.57;1.83;;;19.20;99.90;;;;;;5054651;28;20197;-73
2023/07/02 14:02:39;;;;;;;3.63;1.67;;;19.20;99.90;;;;;;5054649;28;20205;-74
2023/07/02 14:05:26;;;;;;;2.70;1.60;;;19.20;99.90;;;;;;5054398;28;20322;-74
2023/07/02 14:08:14;;;;;;;2.33;1.47;;;19.20;99.90;;;;;;5054538;28;20694;-74
2023/07/02 14:11:01;;;;;;;3.20;1.60;;;19.20;99.90;;;;;;5054418;28;20201;-74
2023/07/02 14:13:48;;;;;;;5.37;1.70;;;19.10;99.90;;;;;;5054418;28;20333;-74
2023/07/02 14:16:37;;;;;;;4.70;1.57;;;18.90;99.90;;;;;;5054370;28;20201;-74
2023/07/02 14:19:24;;;;;;;3.67;1.73;;;18.70;99.90;;;;;;5053589;28;20205;-73